createdAt,value
2017-11-27T00:00:58.847Z,5.85
2017-11-27T00:03:26.568Z,5.83
2017-11-27T00:05:54.191Z,5.84
2017-11-27T00:08:21.868Z,5.78
2017-11-27T00:10:49.538Z,5.77
2017-11-27T00:13:17.233Z,5.79
2017-11-27T00:15:46.232Z,5.84
2017-11-27T00:18:13.936Z,5.84
2017-11-27T00:20:41.577Z,5.77
2017-11-27T00:23:10.124Z,5.77
2017-11-27T00:25:37.817Z,5.67
2017-11-27T00:28:05.552Z,5.77
2017-11-27T00:30:33.233Z,5.78
2017-11-27T00:33:01.025Z,5.70
2017-11-27T00:35:28.644Z,5.72
2017-11-27T00:37:56.266Z,5.64
2017-11-27T00:40:23.992Z,5.68
2017-11-27T00:42:51.616Z,5.64
2017-11-27T00:45:19.243Z,5.60
2017-11-27T00:47:46.969Z,5.59
2017-11-27T00:50:14.580Z,5.65
2017-11-27T00:52:42.188Z,5.70
2017-11-27T00:55:09.906Z,5.70
2017-11-27T00:57:37.573Z,5.69
2017-11-27T01:00:05.292Z,5.74
2017-11-27T01:02:33.090Z,5.82
2017-11-27T01:05:00.706Z,5.79
2017-11-27T01:07:28.381Z,5.85
2017-11-27T01:09:56.084Z,5.85
2017-11-27T01:12:23.761Z,5.92
2017-11-27T01:14:51.381Z,5.93
2017-11-27T01:17:19.040Z,5.88
2017-11-27T01:19:46.652Z,5.86
2017-11-27T01:22:14.325Z,5.92
2017-11-27T01:24:41.984Z,5.98
2017-11-27T01:27:09.599Z,6.01
2017-11-27T01:29:37.204Z,5.98
2017-11-27T01:32:04.864Z,5.91
2017-11-27T01:34:32.588Z,5.96
2017-11-27T01:37:02.294Z,5.98
2017-11-27T01:39:30.037Z,6.07
2017-11-27T01:41:57.709Z,6.10
2017-11-27T01:44:25.393Z,6.12
2017-11-27T01:46:53.060Z,6.16
2017-11-27T01:49:20.761Z,6.23
2017-11-27T01:51:48.540Z,6.17
2017-11-27T01:54:16.318Z,6.23
2017-11-27T01:56:43.952Z,6.31
2017-11-27T01:59:11.632Z,6.31
2017-11-27T02:01:39.395Z,6.38
2017-11-27T02:04:07.042Z,6.32
2017-11-27T02:06:34.749Z,6.38
2017-11-27T02:09:02.489Z,6.44
2017-11-27T02:11:30.157Z,6.47
2017-11-27T02:13:57.784Z,6.40
2017-11-27T02:16:25.444Z,6.41
2017-11-27T02:18:53.059Z,6.37
2017-11-27T02:21:20.732Z,6.42
2017-11-27T02:23:48.424Z,6.41
2017-11-27T02:26:16.110Z,6.44
2017-11-27T02:28:43.785Z,6.45
2017-11-27T02:31:11.585Z,6.52
2017-11-27T02:33:39.187Z,6.59
2017-11-27T02:36:06.806Z,6.61
2017-11-27T02:38:34.457Z,6.59
2017-11-27T02:41:02.948Z,6.48
2017-11-27T02:43:30.573Z,6.48
2017-11-27T02:45:58.228Z,6.48
2017-11-27T02:48:25.843Z,6.49
2017-11-27T02:50:53.466Z,6.55
2017-11-27T02:53:21.133Z,6.62
2017-11-27T02:55:48.814Z,6.65
2017-11-27T02:58:16.432Z,6.68
2017-11-27T03:00:44.126Z,6.73
2017-11-27T03:03:11.813Z,6.76
2017-11-27T03:05:39.435Z,6.72
2017-11-27T03:08:07.152Z,6.76
2017-11-27T03:10:34.813Z,6.72
2017-11-27T03:13:02.467Z,6.78
2017-11-27T03:15:30.120Z,6.70
2017-11-27T03:17:57.728Z,6.69
2017-11-27T03:20:25.412Z,6.73
2017-11-27T03:22:53.072Z,6.66
2017-11-27T03:25:20.692Z,6.74
2017-11-27T03:27:48.424Z,6.82
2017-11-27T03:30:16.147Z,6.84
2017-11-27T03:32:43.808Z,6.83
2017-11-27T03:35:11.485Z,6.89
2017-11-27T03:37:39.213Z,6.89
2017-11-27T03:40:06.889Z,6.81
2017-11-27T03:42:34.565Z,6.90
2017-11-27T03:45:02.230Z,6.96
2017-11-27T03:47:29.901Z,6.97
2017-11-27T03:49:57.573Z,6.98
2017-11-27T03:52:25.235Z,6.93
2017-11-27T03:54:52.841Z,6.94
2017-11-27T03:57:20.447Z,6.96
2017-11-27T03:59:48.192Z,7.00
2017-11-27T04:02:16.096Z,6.96
2017-11-27T04:04:43.716Z,7.00
2017-11-27T04:07:11.371Z,7.03
2017-11-27T04:09:38.996Z,7.00
2017-11-27T04:12:06.689Z,7.07
2017-11-27T04:14:34.356Z,7.10
2017-11-27T04:17:02.131Z,7.17
2017-11-27T04:19:29.761Z,7.15
2017-11-27T04:21:57.432Z,7.17
2017-11-27T04:24:25.052Z,7.23
2017-11-27T04:26:52.673Z,7.26
2017-11-27T04:29:20.397Z,7.23
2017-11-27T04:31:48.025Z,7.24
2017-11-27T04:34:15.697Z,7.26
2017-11-27T04:36:43.376Z,7.20
2017-11-27T04:39:11.062Z,7.20
2017-11-27T04:41:38.753Z,7.25
2017-11-27T04:44:06.420Z,7.28
2017-11-27T04:46:34.044Z,7.26
2017-11-27T04:49:01.733Z,7.23
2017-11-27T04:51:29.400Z,7.20
2017-11-27T04:53:57.020Z,7.17
2017-11-27T04:56:24.657Z,7.16
2017-11-27T04:58:52.324Z,7.13
2017-11-27T05:01:20.010Z,7.13
2017-11-27T05:03:47.626Z,7.11
2017-11-27T05:06:15.349Z,7.07
2017-11-27T05:08:42.963Z,7.10
2017-11-27T05:11:10.635Z,7.12
2017-11-27T05:13:38.376Z,7.09
2017-11-27T05:16:06.064Z,7.08
2017-11-27T05:18:33.672Z,7.07
2017-11-27T05:21:01.408Z,7.13
2017-11-27T05:23:29.027Z,7.13
2017-11-27T05:25:56.696Z,7.14
2017-11-27T05:28:24.353Z,7.10
2017-11-27T05:30:51.970Z,7.14
2017-11-27T05:33:19.585Z,7.18
2017-11-27T05:35:47.257Z,7.14
2017-11-27T05:38:14.876Z,7.06
2017-11-27T05:40:42.484Z,7.09
2017-11-27T05:43:10.152Z,7.14
2017-11-27T05:45:37.832Z,7.19
2017-11-27T05:48:05.447Z,7.20
2017-11-27T05:50:33.131Z,7.20
2017-11-27T05:53:00.815Z,7.21
2017-11-27T05:55:28.425Z,7.15
2017-11-27T05:57:56.157Z,7.18
2017-11-27T06:00:23.873Z,7.20
2017-11-27T06:02:51.494Z,7.21
2017-11-27T06:05:19.152Z,7.16
2017-11-27T06:07:46.764Z,7.16
2017-11-27T06:10:14.437Z,7.21
2017-11-27T06:12:42.120Z,7.22
2017-11-27T06:15:09.782Z,7.22
2017-11-27T06:17:37.461Z,7.23
2017-11-27T06:20:05.124Z,7.24
2017-11-27T06:22:32.796Z,7.27
2017-11-27T06:25:00.413Z,7.23
2017-11-27T06:27:28.072Z,7.32
2017-11-27T06:29:55.750Z,7.37
2017-11-27T06:32:23.363Z,7.31
2017-11-27T06:34:51.031Z,7.33
2017-11-27T06:37:18.699Z,7.36
2017-11-27T06:39:46.312Z,7.37
2017-11-27T06:42:13.977Z,7.24
2017-11-27T06:44:41.600Z,7.22
2017-11-27T06:47:09.272Z,7.23
2017-11-27T06:49:36.928Z,7.11
2017-11-27T06:52:04.600Z,7.14
2017-11-27T06:54:32.270Z,7.17
2017-11-27T06:56:59.928Z,7.25
2017-11-27T06:59:27.594Z,7.30
2017-11-27T07:01:55.200Z,7.34
2017-11-27T07:04:22.936Z,7.44
2017-11-27T07:06:50.548Z,7.45
2017-11-27T07:09:18.168Z,7.50
2017-11-27T07:11:45.844Z,7.43
2017-11-27T07:14:13.456Z,7.48
2017-11-27T07:16:41.122Z,7.60
2017-11-27T07:19:08.836Z,7.62
2017-11-27T07:21:36.517Z,7.63
2017-11-27T07:24:04.183Z,7.64
2017-11-27T07:26:31.940Z,7.66
2017-11-27T07:28:59.613Z,7.67
2017-11-27T07:31:27.284Z,7.62
2017-11-27T07:33:55.082Z,7.58
2017-11-27T07:36:22.756Z,7.67
2017-11-27T07:38:56.073Z,7.67
2017-11-27T07:41:23.754Z,7.67
2017-11-27T07:43:51.449Z,7.57
2017-11-27T07:46:19.180Z,7.62
2017-11-27T07:48:46.851Z,7.66
2017-11-27T07:51:14.528Z,7.65
2017-11-27T07:53:42.257Z,7.58
2017-11-27T07:56:09.944Z,7.55
2017-11-27T07:58:38.005Z,7.56
2017-11-27T08:01:05.753Z,7.65
2017-11-27T08:03:33.469Z,7.62
2017-11-27T08:06:01.140Z,7.71
2017-11-27T08:08:28.896Z,7.82
2017-11-27T08:10:56.568Z,7.87
2017-11-27T08:13:24.250Z,7.92
2017-11-27T08:15:52.002Z,7.90
2017-11-27T08:18:19.732Z,7.97
2017-11-27T08:20:47.449Z,8.09
2017-11-27T08:23:15.177Z,8.19
2017-11-27T08:25:42.900Z,8.37
2017-11-27T08:28:10.589Z,8.24
2017-11-27T08:30:38.345Z,8.17
2017-11-27T08:33:06.023Z,8.32
2017-11-27T08:35:33.636Z,8.41
2017-11-27T08:38:01.297Z,8.17
2017-11-27T08:40:28.972Z,8.30
2017-11-27T08:42:56.577Z,8.38
2017-11-27T08:45:24.253Z,8.51
2017-11-27T08:47:51.861Z,8.39
2017-11-27T08:50:19.456Z,8.22
2017-11-27T08:52:47.112Z,8.36
2017-11-27T08:55:14.715Z,8.43
2017-11-27T08:57:42.345Z,8.15
2017-11-27T09:00:10.065Z,8.28
2017-11-27T09:02:37.732Z,8.25
2017-11-27T09:05:05.340Z,8.31
2017-11-27T09:07:33.015Z,8.40
2017-11-27T09:10:00.621Z,8.44
2017-11-27T09:12:28.292Z,8.46
2017-11-27T09:14:55.985Z,8.50
2017-11-27T09:17:23.604Z,8.22
2017-11-27T09:19:51.265Z,8.53
2017-11-27T09:22:18.951Z,8.22
2017-11-27T09:24:46.630Z,8.23
2017-11-27T09:27:14.249Z,8.10
2017-11-27T09:29:41.909Z,8.04
2017-11-27T09:32:09.620Z,7.89
2017-11-27T09:34:37.220Z,7.70
2017-11-27T09:37:04.881Z,7.68
2017-11-27T09:39:32.636Z,7.68
2017-11-27T09:42:00.239Z,7.41
2017-11-27T09:44:27.918Z,7.69
2017-11-27T09:46:55.589Z,7.80
2017-11-27T09:49:23.192Z,7.54
2017-11-27T09:51:50.836Z,7.45
2017-11-27T09:54:18.446Z,7.41
2017-11-27T09:56:46.044Z,7.32
2017-11-27T09:59:13.690Z,7.39
2017-11-27T10:01:41.357Z,7.44
2017-11-27T10:04:09.044Z,7.38
2017-11-27T10:06:36.773Z,7.16
2017-11-27T10:09:04.492Z,7.26
2017-11-27T10:11:32.096Z,7.37
2017-11-27T10:13:59.833Z,7.32
2017-11-27T10:16:27.470Z,7.38
2017-11-27T10:18:55.072Z,7.31
2017-11-27T10:21:22.772Z,7.13
2017-11-27T10:23:50.379Z,7.27
2017-11-27T10:26:18.029Z,7.46
2017-11-27T10:28:45.672Z,7.65
2017-11-27T10:31:13.275Z,7.65
2017-11-27T10:33:40.873Z,7.77
2017-11-27T10:36:08.539Z,7.73
2017-11-27T10:38:36.136Z,7.72
2017-11-27T10:41:03.740Z,7.49
2017-11-27T10:43:31.456Z,7.53
2017-11-27T10:45:59.124Z,7.48
2017-11-27T10:48:26.781Z,7.31
2017-11-27T10:50:54.497Z,7.23
2017-11-27T10:53:22.174Z,7.10
2017-11-27T10:55:49.789Z,6.92
2017-11-27T10:58:17.454Z,6.86
2017-11-27T11:03:41.133Z,6.54
2017-11-27T11:06:08.808Z,6.51
2017-11-27T11:08:36.472Z,6.54
2017-11-27T11:11:04.143Z,6.46
2017-11-27T11:13:31.744Z,6.53
2017-11-27T11:15:59.432Z,6.34
2017-11-27T11:18:27.096Z,6.22
2017-11-27T11:20:54.710Z,6.26
2017-11-27T11:23:22.324Z,6.22
2017-11-27T11:25:49.975Z,6.24
2017-11-27T11:28:17.576Z,6.25
2017-11-27T11:30:45.177Z,6.15
2017-11-27T11:33:12.827Z,6.03
2017-11-27T11:35:40.429Z,6.14
2017-11-27T11:38:08.024Z,6.20
2017-11-27T11:40:35.672Z,6.15
2017-11-27T11:43:03.288Z,6.14
2017-11-27T11:45:30.885Z,6.18
2017-11-27T11:47:58.523Z,6.30
2017-11-27T11:50:26.120Z,6.20
2017-11-27T11:52:53.808Z,6.18
2017-11-27T11:55:21.493Z,6.18
2017-11-27T11:58:06.707Z,6.14
2017-11-27T12:00:54.818Z,5.99
2017-11-27T12:03:40.376Z,5.97
2017-11-27T12:06:08.146Z,5.92
2017-11-27T12:08:35.780Z,5.80
2017-11-27T12:11:03.489Z,5.88
2017-11-27T12:13:31.160Z,5.85
2017-11-27T12:15:58.857Z,5.85
2017-11-27T12:18:44.203Z,5.81
2017-11-27T12:21:29.423Z,5.77
2017-11-27T12:24:14.597Z,5.81
2017-11-27T12:26:42.252Z,5.77
2017-11-27T12:29:09.879Z,5.78
2017-11-27T12:31:37.647Z,5.76
2017-11-27T12:34:05.291Z,5.79
2017-11-27T12:36:32.961Z,5.68
2017-11-27T12:39:00.669Z,5.63
2017-11-27T12:41:28.276Z,5.61
2017-11-27T12:43:55.937Z,5.71
2017-11-27T12:46:23.623Z,5.78
2017-11-27T12:48:51.240Z,5.89
2017-11-27T12:51:18.923Z,6.00
2017-11-27T12:53:46.582Z,5.95
2017-11-27T12:56:14.205Z,5.88
2017-11-27T12:58:41.821Z,5.93
2017-11-27T13:01:09.602Z,5.89
2017-11-27T13:03:37.276Z,5.93
2017-11-27T13:06:04.906Z,5.84
2017-11-27T13:08:32.623Z,5.74
2017-11-27T13:11:00.310Z,5.80
2017-11-27T13:13:27.922Z,5.76
2017-11-27T13:15:55.687Z,5.75
2017-11-27T13:18:23.344Z,5.59
2017-11-27T13:20:51.005Z,5.50
2017-11-27T13:23:18.660Z,5.57
2017-11-27T13:25:46.266Z,5.52
2017-11-27T13:28:13.881Z,5.54
2017-11-27T13:30:41.536Z,5.51
2017-11-27T13:33:09.150Z,5.46
2017-11-27T13:35:36.814Z,5.42
2017-11-27T13:38:04.471Z,5.41
2017-11-27T13:40:32.141Z,5.41
2017-11-27T13:42:59.739Z,5.37
2017-11-27T13:45:27.490Z,5.36
2017-11-27T13:47:55.118Z,5.37
2017-11-27T13:50:22.793Z,5.34
2017-11-27T13:52:50.484Z,5.30
2017-11-27T13:55:18.102Z,5.13
2017-11-27T13:57:45.771Z,5.14
2017-11-27T14:00:13.537Z,5.08
2017-11-27T14:02:41.157Z,5.03
2017-11-27T14:05:08.833Z,5.05
2017-11-27T14:07:36.482Z,5.11
2017-11-27T14:10:04.114Z,5.09
2017-11-27T14:12:31.726Z,5.10
2017-11-27T14:14:59.373Z,5.16
2017-11-27T14:17:27.038Z,5.05
2017-11-27T14:19:54.720Z,4.87
2017-11-27T14:22:22.451Z,4.87
2017-11-27T14:24:50.125Z,4.79
2017-11-27T14:27:17.809Z,4.78
2017-11-27T14:29:45.520Z,4.84
2017-11-27T14:32:13.142Z,4.88
2017-11-27T14:34:40.805Z,4.65
2017-11-27T14:37:08.522Z,4.63
2017-11-27T14:39:36.144Z,4.49
2017-11-27T14:42:03.821Z,4.28
2017-11-27T14:44:31.548Z,4.33
2017-11-27T14:46:59.189Z,4.21
2017-11-27T14:49:26.797Z,4.23
2017-11-27T14:51:54.448Z,4.16
2017-11-27T14:54:22.080Z,4.21
2017-11-27T14:56:49.796Z,4.26
2017-11-27T14:59:17.536Z,4.21
2017-11-27T15:01:45.165Z,4.25
2017-11-27T15:04:12.857Z,4.33
2017-11-27T15:06:40.529Z,4.35
2017-11-27T15:09:08.205Z,4.33
2017-11-27T15:11:35.835Z,4.24
2017-11-27T15:14:03.509Z,4.28
2017-11-27T15:16:31.203Z,4.25
2017-11-27T15:18:58.916Z,4.25
2017-11-27T15:21:26.626Z,4.27
2017-11-27T15:23:54.272Z,4.18
2017-11-27T15:26:21.956Z,4.22
2017-11-27T15:28:49.646Z,4.26
2017-11-27T15:31:17.356Z,4.26
2017-11-27T15:33:45.078Z,4.25
2017-11-27T15:36:12.796Z,4.26
2017-11-27T15:38:40.558Z,4.30
2017-11-27T15:41:08.286Z,4.24
2017-11-27T15:43:36.033Z,4.16
2017-11-27T15:46:03.713Z,4.03
2017-11-27T15:48:31.474Z,3.94
2017-11-27T15:50:59.266Z,3.88
2017-11-27T15:53:27.030Z,3.80
2017-11-27T15:55:54.698Z,3.77
2017-11-27T15:58:22.441Z,3.80
2017-11-27T16:00:50.204Z,3.80
2017-11-27T16:03:17.877Z,3.82
2017-11-27T16:05:45.560Z,3.87
2017-11-27T16:08:13.168Z,3.93
2017-11-27T16:10:40.785Z,3.96
2017-11-27T16:13:08.539Z,4.03
2017-11-27T16:15:36.221Z,4.07
2017-11-27T16:18:03.924Z,4.02
2017-11-27T16:20:31.601Z,4.01
2017-11-27T16:22:59.237Z,3.97
2017-11-27T16:25:26.868Z,3.95
2017-11-27T16:27:54.548Z,3.91
2017-11-27T16:30:22.315Z,3.89
2017-11-27T16:32:50.008Z,3.89
2017-11-27T16:35:17.684Z,3.96
2017-11-27T16:37:45.337Z,3.90
2017-11-27T16:40:13.017Z,3.84
2017-11-27T16:42:40.680Z,3.82
2017-11-27T16:45:08.280Z,3.83
2017-11-27T16:47:35.946Z,3.82
2017-11-27T16:50:03.687Z,3.84
2017-11-27T16:52:31.370Z,3.89
2017-11-27T16:54:58.999Z,3.79
2017-11-27T16:57:26.722Z,3.80
2017-11-27T16:59:54.424Z,3.80
2017-11-27T17:02:22.064Z,3.81
2017-11-27T17:04:49.753Z,3.76
2017-11-27T17:07:18.389Z,3.75
2017-11-27T17:09:46.013Z,3.80
2017-11-27T17:12:13.761Z,3.85
2017-11-27T17:14:41.432Z,3.84
2017-11-27T17:17:09.157Z,3.75
2017-11-27T17:19:36.825Z,3.77
2017-11-27T17:22:04.508Z,3.82
2017-11-27T17:24:32.201Z,3.84
2017-11-27T17:26:59.927Z,3.86
2017-11-27T17:29:27.669Z,3.83
2017-11-27T17:31:55.405Z,3.83
2017-11-27T17:34:23.177Z,3.80
2017-11-27T17:36:50.852Z,3.77
2017-11-27T17:39:18.537Z,3.76
2017-11-27T17:41:46.340Z,3.75
2017-11-27T17:44:13.989Z,3.77
2017-11-27T17:46:41.612Z,3.57
2017-11-27T17:49:09.313Z,3.40
2017-11-27T17:51:37.108Z,3.25
2017-11-27T17:54:04.740Z,3.08
2017-11-27T17:56:32.484Z,3.01
2017-11-27T17:59:00.146Z,2.96
2017-11-27T18:01:27.820Z,2.91
2017-11-27T18:03:55.489Z,2.85
2017-11-27T18:06:23.174Z,2.83
2017-11-27T18:08:50.788Z,2.73
2017-11-27T18:11:18.449Z,2.68
2017-11-27T18:13:46.134Z,2.64
2017-11-27T18:16:13.835Z,2.59
2017-11-27T18:18:41.606Z,2.57
2017-11-27T18:21:09.333Z,2.57
2017-11-27T18:23:37.139Z,2.57
2017-11-27T18:26:04.810Z,2.55
2017-11-27T18:28:32.543Z,2.51
2017-11-27T18:31:00.176Z,2.47
2017-11-27T18:33:27.852Z,2.43
2017-11-27T18:35:55.529Z,2.46
2017-11-27T18:38:23.224Z,2.47
2017-11-27T18:40:50.949Z,2.45
2017-11-27T18:43:18.693Z,2.44
2017-11-27T18:45:46.370Z,2.45
2017-11-27T18:48:14.117Z,2.43
2017-11-27T18:50:41.745Z,2.42
2017-11-27T18:53:09.373Z,2.45
2017-11-27T18:55:37.052Z,2.47
2017-11-27T18:58:04.693Z,2.47
2017-11-27T19:00:32.351Z,2.42
2017-11-27T19:03:00.117Z,2.43
2017-11-27T19:05:27.801Z,2.44
2017-11-27T19:07:55.433Z,2.50
2017-11-27T19:10:23.124Z,2.52
2017-11-27T19:12:50.841Z,2.46
2017-11-27T19:15:18.499Z,2.43
2017-11-27T19:17:46.200Z,2.42
2017-11-27T19:20:13.821Z,2.43
2017-11-27T19:22:41.459Z,2.39
2017-11-27T19:25:09.144Z,2.33
2017-11-27T19:27:36.842Z,2.43
2017-11-27T19:30:04.512Z,2.48
2017-11-27T19:32:33.241Z,2.51
2017-11-27T19:35:00.892Z,2.53
2017-11-27T19:37:30.321Z,2.51
2017-11-27T19:39:58.058Z,2.58
2017-11-27T19:42:25.677Z,2.67
2017-11-27T19:44:53.294Z,2.72
2017-11-27T19:47:21.029Z,2.78
2017-11-27T19:49:48.721Z,2.80
2017-11-27T19:52:16.385Z,2.80
2017-11-27T19:54:44.101Z,2.84
2017-11-27T19:57:11.744Z,2.89
2017-11-27T19:59:39.369Z,2.90
2017-11-27T20:02:07.081Z,2.93
2017-11-27T20:04:34.749Z,2.94
2017-11-27T20:07:02.394Z,2.96
2017-11-27T20:09:30.096Z,2.94
2017-11-27T20:11:57.869Z,2.97
2017-11-27T20:14:25.569Z,3.02
2017-11-27T20:16:53.442Z,3.08
2017-11-27T20:19:21.132Z,3.12
2017-11-27T20:21:48.936Z,3.15
2017-11-27T20:24:16.785Z,3.17
2017-11-27T20:26:44.517Z,3.23
2017-11-27T20:29:12.214Z,3.22
2017-11-27T20:31:40.036Z,3.22
2017-11-27T20:34:07.679Z,3.19
2017-11-27T20:36:35.360Z,3.11
2017-11-27T20:39:03.103Z,3.18
2017-11-27T20:41:30.845Z,3.14
2017-11-27T20:43:58.584Z,3.18
2017-11-27T20:46:26.349Z,3.25
2017-11-27T20:48:54.054Z,3.29
2017-11-27T20:51:21.781Z,3.29
2017-11-27T20:53:49.581Z,3.27
2017-11-27T20:56:17.220Z,3.34
2017-11-27T20:58:44.980Z,3.34
2017-11-27T21:01:12.703Z,3.29
2017-11-27T21:03:40.340Z,3.29
2017-11-27T21:06:07.992Z,3.27
2017-11-27T21:08:35.694Z,3.18
2017-11-27T21:11:03.316Z,3.10
2017-11-27T21:13:30.936Z,3.11
2017-11-27T21:15:58.672Z,3.05
2017-11-27T21:18:26.353Z,2.89
2017-11-27T21:20:53.990Z,2.84
2017-11-27T21:23:21.678Z,2.76
2017-11-27T21:25:49.356Z,2.68
2017-11-27T21:28:16.985Z,2.60
2017-11-27T21:30:44.706Z,2.53
2017-11-27T21:33:12.348Z,2.44
2017-11-27T21:35:40.025Z,2.40
2017-11-27T21:38:07.704Z,2.38
2017-11-27T21:40:35.346Z,2.37
2017-11-27T21:43:03.037Z,2.33
2017-11-27T21:45:30.782Z,2.36
2017-11-27T21:47:58.409Z,2.32
2017-11-27T21:50:26.020Z,2.33
2017-11-27T21:52:53.684Z,2.30
2017-11-27T21:55:21.388Z,2.31
2017-11-27T21:57:49.078Z,2.29
2017-11-27T22:00:16.804Z,2.24
2017-11-27T22:02:44.416Z,2.24
2017-11-27T22:05:12.076Z,2.23
2017-11-27T22:07:39.793Z,2.23
2017-11-27T22:10:07.502Z,2.23
2017-11-27T22:12:35.120Z,2.25
2017-11-27T22:15:02.807Z,2.24
2017-11-27T22:17:30.443Z,2.19
2017-11-27T22:19:58.078Z,2.19
2017-11-27T22:22:25.825Z,2.21
2017-11-27T22:24:53.484Z,2.29
2017-11-27T22:27:21.121Z,2.29
2017-11-27T22:29:48.804Z,2.26
2017-11-27T22:32:16.582Z,2.29
2017-11-27T22:34:44.220Z,2.30
2017-11-27T22:37:11.957Z,2.31
2017-11-27T22:39:39.589Z,2.31
2017-11-27T22:42:07.205Z,2.32
2017-11-27T22:44:34.907Z,2.32
2017-11-27T22:47:02.573Z,2.34
2017-11-27T22:49:30.206Z,2.38
2017-11-27T22:51:57.973Z,2.43
2017-11-27T22:54:25.612Z,2.47
2017-11-27T22:56:53.354Z,2.47
2017-11-27T22:59:21.096Z,2.47
2017-11-27T23:01:48.750Z,2.47
2017-11-27T23:04:16.382Z,2.50
2017-11-27T23:06:43.983Z,2.50
2017-11-27T23:09:11.618Z,2.52
2017-11-27T23:11:39.191Z,2.59
2017-11-27T23:14:06.795Z,2.61
2017-11-27T23:16:34.339Z,2.65
2017-11-27T23:19:01.948Z,2.58
2017-11-27T23:21:29.599Z,2.64
2017-11-27T23:23:57.156Z,2.64
2017-11-27T23:26:24.739Z,2.61
2017-11-27T23:28:52.366Z,2.66
2017-11-27T23:31:19.925Z,2.69
2017-11-27T23:33:47.481Z,2.64
2017-11-27T23:36:15.094Z,2.59
2017-11-27T23:38:42.648Z,2.59
2017-11-27T23:41:10.275Z,2.63
2017-11-27T23:43:37.847Z,2.65
2017-11-27T23:46:05.419Z,2.63
2017-11-27T23:48:32.991Z,2.65
2017-11-27T23:51:00.603Z,2.69
2017-11-27T23:53:28.156Z,2.68
2017-11-27T23:55:55.727Z,2.69
2017-11-27T23:58:23.287Z,2.64
